createdAt,value
2022-09-17T00:40:04.360Z,90.30
2022-09-17T00:50:08.388Z,88.60
2022-09-17T01:00:09.304Z,88.40
2022-09-17T02:02:50.203Z,89.10
2022-09-17T02:05:24.447Z,88.50
2022-09-17T04:54:56.933Z,95.00
2022-09-17T05:36:43.394Z,91.00
2022-09-17T05:44:04.503Z,96.30
2022-09-17T06:13:35.692Z,92.00
2022-09-17T06:21:07.308Z,95.90
2022-09-17T06:23:37.557Z,90.50
2022-09-17T06:26:05.980Z,85.30
2022-09-17T06:28:33.737Z,88.10
2022-09-17T06:31:04.551Z,90.60
2022-09-17T06:33:32.271Z,82.90
2022-09-17T06:36:01.232Z,80.90
2022-09-17T06:38:28.839Z,93.00
2022-09-17T06:43:25.612Z,82.90
2022-09-17T06:46:00.668Z,78.10
2022-09-17T06:48:29.024Z,78.20
2022-09-17T06:53:24.528Z,78.80
2022-09-17T07:08:16.196Z,84.60
2022-09-17T07:18:09.845Z,92.10
2022-09-17T07:20:37.156Z,84.40
2022-09-17T07:25:31.318Z,83.60
2022-09-17T07:27:58.018Z,79.50
2022-09-17T07:32:54.303Z,65.10
2022-09-17T07:47:41.442Z,61.20
2022-09-17T07:52:35.823Z,62.10
2022-09-17T07:55:02.472Z,56.20
2022-09-17T08:12:13.103Z,50.40
2022-09-17T08:14:39.724Z,47.90
2022-09-17T08:17:09.612Z,31.20
2022-09-17T08:19:36.306Z,33.70
2022-09-17T08:24:30.338Z,47.80
2022-09-17T08:29:24.221Z,46.60
2022-09-17T08:31:50.927Z,56.70
2022-09-17T08:34:17.625Z,48.90
2022-09-17T08:36:44.457Z,58.90
2022-09-17T08:39:12.203Z,51.00
2022-09-17T08:42:00.652Z,33.60
2022-09-17T08:44:34.039Z,35.80
2022-09-17T08:47:13.871Z,35.80
2022-09-17T08:49:48.810Z,51.60
2022-09-17T08:52:43.680Z,33.70
2022-09-17T08:55:25.872Z,40.20
2022-09-17T08:58:23.110Z,45.20
2022-09-17T09:00:55.956Z,35.10
2022-09-17T09:03:38.666Z,41.30
2022-09-17T09:06:10.514Z,27.80
2022-09-17T09:09:05.441Z,26.60
2022-09-17T09:11:35.157Z,44.40
2022-09-17T09:14:10.627Z,32.30
2022-09-17T09:16:43.890Z,37.80
2022-09-17T09:19:27.267Z,31.20
2022-09-17T09:24:26.046Z,51.10
2022-09-17T09:27:18.851Z,35.00
2022-09-17T09:29:58.212Z,40.60
2022-09-17T09:32:46.548Z,50.00
2022-09-17T09:35:27.320Z,31.40
2022-09-17T09:38:16.922Z,32.60
2022-09-17T09:41:03.831Z,45.60
2022-09-17T09:44:02.788Z,32.70
2022-09-17T09:46:48.723Z,27.60
2022-09-17T09:49:24.182Z,26.90
2022-09-17T09:52:09.640Z,28.10
2022-09-17T09:54:36.275Z,38.70
2022-09-17T09:57:24.262Z,47.70
2022-09-17T09:59:51.007Z,33.40
2022-09-17T10:14:44.454Z,40.50
2022-09-17T10:19:42.203Z,52.30
2022-09-17T10:22:24.451Z,48.80
2022-09-17T10:24:54.202Z,37.20
2022-09-17T10:27:23.552Z,31.10
2022-09-17T10:30:08.437Z,45.50
2022-09-17T10:32:35.652Z,31.30
2022-09-17T10:35:22.254Z,34.90
2022-09-17T10:37:53.536Z,49.50
2022-09-17T10:42:49.072Z,42.70
2022-09-17T10:45:30.703Z,33.70
2022-09-17T10:47:59.730Z,36.40
2022-09-17T10:50:31.748Z,50.80
2022-09-17T10:53:02.764Z,33.70
2022-09-17T10:55:38.251Z,46.50
2022-09-17T10:58:07.920Z,28.80
2022-09-17T11:00:44.098Z,45.00
2022-09-17T11:03:43.836Z,28.90
2022-09-17T11:06:25.355Z,28.50
2022-09-17T11:09:06.388Z,40.70
2022-09-17T11:11:46.065Z,40.20
2022-09-17T11:14:46.558Z,39.60
2022-09-17T11:17:50.257Z,34.40
2022-09-17T11:20:41.475Z,25.90
2022-09-17T11:24:00.431Z,27.50
2022-09-17T11:26:39.215Z,33.30
2022-09-17T11:29:40.646Z,39.90
2022-09-17T11:32:14.714Z,39.60
2022-09-17T11:34:59.196Z,24.40
2022-09-17T11:37:33.790Z,24.80
2022-09-17T11:40:07.315Z,38.10
2022-09-17T11:42:38.504Z,26.40
2022-09-17T11:45:23.605Z,27.80
2022-09-17T11:47:55.527Z,43.90
2022-09-17T11:50:28.141Z,48.50
2022-09-17T11:53:34.436Z,33.30
2022-09-17T11:56:10.079Z,53.10
2022-09-17T11:58:49.768Z,51.70
2022-09-17T12:02:18.105Z,33.80
2022-09-17T12:04:56.078Z,53.40
2022-09-17T12:07:48.863Z,53.00
2022-09-17T12:10:15.448Z,55.30
2022-09-17T12:12:50.741Z,53.80
2022-09-17T12:15:47.753Z,53.00
2022-09-17T12:18:42.480Z,51.70
2022-09-17T12:21:11.071Z,34.10
2022-09-17T12:23:54.023Z,48.80
2022-09-17T12:26:39.492Z,35.30
2022-09-17T12:29:23.299Z,31.50
2022-09-17T12:32:30.275Z,29.80
2022-09-17T12:36:03.580Z,48.10
2022-09-17T12:39:02.926Z,49.80
2022-09-17T12:41:52.135Z,48.70
2022-09-17T12:44:41.823Z,52.40
2022-09-17T12:47:26.963Z,53.50
2022-09-17T12:50:14.565Z,35.90
2022-09-17T12:53:02.460Z,38.40
2022-09-17T12:55:41.414Z,38.70
2022-09-17T12:58:32.345Z,35.60
2022-09-17T13:01:11.279Z,50.10
2022-09-17T13:03:48.186Z,52.40
2022-09-17T13:09:05.158Z,52.80
2022-09-17T13:11:42.094Z,45.90
2022-09-17T13:14:45.414Z,51.80
2022-09-17T13:17:19.476Z,42.20
2022-09-17T13:20:05.699Z,42.20
2022-09-17T13:22:43.159Z,52.70
2022-09-17T13:25:16.135Z,46.80
2022-09-17T13:27:43.375Z,40.00
2022-09-17T13:30:15.484Z,53.00
2022-09-17T13:32:46.883Z,53.60
2022-09-17T13:37:48.872Z,51.60
2022-09-17T13:40:27.754Z,54.70
2022-09-17T13:43:16.988Z,55.70
2022-09-17T13:45:58.921Z,40.30
2022-09-17T13:48:29.119Z,42.10
2022-09-17T13:50:56.032Z,47.00
2022-09-17T13:53:27.132Z,43.80
2022-09-17T13:55:59.315Z,55.10
2022-09-17T13:58:29.487Z,57.80
2022-09-17T14:01:01.397Z,60.00
2022-09-17T14:03:31.219Z,43.90
2022-09-17T14:06:21.992Z,47.80
2022-09-17T14:08:50.527Z,63.00
2022-09-17T14:11:25.851Z,63.40
2022-09-17T14:13:53.061Z,63.70
2022-09-17T14:16:29.247Z,46.80
2022-09-17T14:19:00.571Z,48.90
2022-09-17T14:21:31.284Z,49.00
2022-09-17T14:24:01.375Z,49.50
2022-09-17T14:26:49.357Z,47.60
2022-09-17T14:29:31.350Z,65.40
2022-09-17T14:31:58.671Z,65.00
2022-09-17T14:34:26.454Z,51.20
2022-09-17T14:36:54.656Z,65.50
2022-09-17T14:39:29.072Z,51.20
2022-09-17T14:41:56.174Z,66.80
2022-09-17T14:44:26.998Z,50.80
2022-09-17T14:47:02.119Z,49.50
2022-09-17T14:49:33.208Z,66.90
2022-09-17T14:52:01.723Z,50.60
2022-09-17T14:54:35.775Z,65.60
2022-09-17T14:57:08.920Z,66.00
2022-09-17T14:59:46.775Z,51.00
2022-09-17T15:02:41.229Z,49.90
2022-09-17T15:05:36.748Z,66.10
2022-09-17T15:08:15.476Z,49.20
2022-09-17T15:11:03.589Z,65.90
2022-09-17T15:13:40.132Z,66.70
2022-09-17T15:16:16.859Z,64.40
2022-09-17T15:19:01.480Z,65.90
2022-09-17T15:21:35.093Z,67.00
2022-09-17T15:24:13.908Z,49.90
2022-09-17T15:26:43.454Z,51.50
2022-09-17T15:29:14.623Z,67.00
2022-09-17T15:31:41.418Z,66.40
2022-09-17T15:34:12.181Z,53.80
2022-09-17T15:36:39.000Z,65.90
2022-09-17T15:39:32.211Z,61.00
2022-09-17T15:41:58.874Z,66.10
2022-09-17T15:44:31.188Z,64.60
2022-09-17T15:47:39.204Z,50.80
2022-09-17T15:50:19.095Z,54.40
2022-09-17T15:52:49.568Z,68.80
2022-09-17T15:56:00.953Z,68.00
2022-09-17T15:58:32.941Z,69.00
2022-09-17T16:01:18.557Z,68.60
2022-09-17T16:03:45.349Z,70.20
2022-09-17T16:06:25.519Z,53.10
2022-09-17T16:09:03.242Z,53.70
2022-09-17T16:11:33.321Z,54.10
2022-09-17T16:14:03.874Z,56.70
2022-09-17T16:16:37.803Z,56.30
2022-09-17T16:19:06.864Z,56.10
2022-09-17T16:24:00.879Z,67.70
2022-09-17T16:26:31.474Z,55.00
2022-09-17T16:31:38.438Z,62.60
2022-09-17T16:34:05.323Z,69.40
2022-09-17T16:38:59.594Z,69.30
2022-09-17T16:48:51.768Z,71.80
2022-09-17T16:51:18.724Z,58.00
2022-09-17T16:53:45.859Z,61.60
2022-09-17T16:56:15.430Z,75.20
2022-09-17T16:58:42.087Z,66.10
2022-09-17T17:01:10.167Z,61.00
2022-09-17T17:03:36.996Z,67.00
2022-09-17T17:06:04.172Z,62.50
2022-09-17T17:08:34.626Z,63.10
2022-09-17T17:25:45.372Z,79.30
2022-09-17T17:40:33.172Z,82.20
2022-09-17T17:43:00.738Z,66.20
2022-09-17T17:45:28.043Z,82.90
2022-09-17T18:02:39.897Z,76.60
2022-09-17T18:07:36.482Z,87.20
2022-09-17T18:10:03.421Z,88.30
2022-09-17T18:17:25.279Z,84.30
2022-09-17T18:37:03.658Z,91.00
2022-09-17T18:44:46.819Z,91.20
2022-09-17T18:47:13.504Z,91.00
2022-09-17T18:54:34.261Z,91.50
2022-09-17T19:04:23.017Z,91.70
2022-09-17T19:14:11.741Z,87.60
2022-09-17T19:16:38.505Z,85.50
2022-09-17T19:26:27.563Z,93.00
2022-09-17T19:31:28.217Z,93.00
2022-09-17T19:36:22.496Z,91.60
2022-09-17T19:38:49.533Z,82.00
2022-09-17T19:46:15.483Z,92.60
2022-09-17T19:48:47.246Z,84.20
2022-09-17T19:51:14.936Z,89.30
2022-09-17T19:58:47.062Z,84.40
2022-09-17T20:01:14.639Z,93.40
2022-09-17T20:03:43.387Z,93.80
2022-09-17T20:06:12.773Z,83.60
2022-09-17T20:16:14.641Z,93.80
2022-09-17T20:18:41.565Z,93.90
2022-09-17T20:23:58.460Z,84.40
2022-09-17T20:26:26.357Z,84.70
2022-09-17T20:39:12.205Z,93.70
2022-09-17T20:44:07.239Z,84.70
2022-09-17T20:49:01.120Z,93.50
2022-09-17T21:06:35.579Z,85.70
2022-09-17T21:09:03.355Z,94.50
2022-09-17T21:11:31.318Z,86.30
2022-09-17T21:21:25.762Z,95.00
2022-09-17T21:23:52.892Z,94.50
2022-09-17T21:31:25.447Z,87.00
2022-09-17T21:46:23.506Z,87.60
2022-09-17T22:08:39.333Z,88.00
2022-09-17T22:28:32.489Z,94.00
2022-09-17T22:38:40.866Z,90.70
2022-09-17T22:46:14.200Z,89.50
2022-09-17T22:51:08.857Z,90.60
2022-09-17T22:53:37.104Z,92.50
2022-09-17T22:56:06.498Z,95.60
2022-09-17T22:58:33.222Z,94.10
2022-09-17T23:06:04.434Z,89.70
2022-09-17T23:08:32.528Z,89.10
2022-09-17T23:43:53.367Z,88.60
2022-09-17T23:46:21.727Z,89.10
2022-09-17T23:56:18.693Z,89.50
